Galeton, Colorado
Current Conditions -  °F | °C
As of 9:15 PM on Monday 22 Dec 2014 (Local Time) from KGXY Reporting Station
Clear Clear  
Wind Chill: 19°   Ceiling: Unl
Heat Index: 30°   Visibility: 10mi
Dew Point: 16°   Wind: 15mph
Humidity: 55%   Direction: 310°NW
Pressure: 29.83"   Gusts: 21mph
Location:  40.52°N, 104.59°W
Report Text: KGXY 230415Z AUTO 31013G18KT 10SM CLR M01/M09 A2983 RMK AO1
Loading
Personal Weather Stations






























Interactive Weather Map New forecast layout! Learn more

10-Day Weather Forecast

Advertisements
Track Severe Weather on mobile